sensor_id;sensor_type;location;lat;lon;timestamp;P1;durP1;ratioP1;P2;durP2;ratioP2
31368;SDS011;18004;48.416;10.066;2023-04-15T00:01:23;7.78;;;1.80;;
31368;SDS011;18004;48.416;10.066;2023-04-15T00:03:50;12.57;;;1.55;;
31368;SDS011;18004;48.416;10.066;2023-04-15T00:06:19;3.20;;;1.80;;
31368;SDS011;18004;48.416;10.066;2023-04-15T00:08:46;5.70;;;1.85;;
31368;SDS011;18004;48.416;10.066;2023-04-15T00:11:12;3.47;;;1.73;;
31368;SDS011;18004;48.416;10.066;2023-04-15T00:13:38;7.00;;;1.98;;
31368;SDS011;18004;48.416;10.066;2023-04-15T00:16:04;3.88;;;1.48;;
31368;SDS011;18004;48.416;10.066;2023-04-15T00:18:32;6.47;;;2.10;;
31368;SDS011;18004;48.416;10.066;2023-04-15T00:20:58;3.85;;;1.85;;
31368;SDS011;18004;48.416;10.066;2023-04-15T00:23:24;5.55;;;1.88;;
31368;SDS011;18004;48.416;10.066;2023-04-15T00:25:50;1.88;;;1.42;;
31368;SDS011;18004;48.416;10.066;2023-04-15T00:28:16;3.35;;;1.90;;
31368;SDS011;18004;48.416;10.066;2023-04-15T00:30:42;7.25;;;2.28;;
31368;SDS011;18004;48.416;10.066;2023-04-15T00:33:09;3.10;;;1.95;;
31368;SDS011;18004;48.416;10.066;2023-04-15T00:35:35;6.70;;;2.20;;
31368;SDS011;18004;48.416;10.066;2023-04-15T00:38:01;4.10;;;1.67;;
31368;SDS011;18004;48.416;10.066;2023-04-15T00:40:34;9.88;;;1.70;;
31368;SDS011;18004;48.416;10.066;2023-04-15T00:43:00;4.18;;;1.75;;
31368;SDS011;18004;48.416;10.066;2023-04-15T00:45:26;5.53;;;1.90;;
31368;SDS011;18004;48.416;10.066;2023-04-15T00:47:52;4.90;;;1.50;;
31368;SDS011;18004;48.416;10.066;2023-04-15T00:50:19;3.42;;;2.15;;
31368;SDS011;18004;48.416;10.066;2023-04-15T00:52:44;5.15;;;1.80;;
31368;SDS011;18004;48.416;10.066;2023-04-15T00:55:11;4.75;;;1.73;;
31368;SDS011;18004;48.416;10.066;2023-04-15T00:57:37;3.38;;;1.85;;
31368;SDS011;18004;48.416;10.066;2023-04-15T01:00:04;5.28;;;1.67;;
31368;SDS011;18004;48.416;10.066;2023-04-15T01:02:33;2.65;;;1.75;;
31368;SDS011;18004;48.416;10.066;2023-04-15T01:05:00;3.92;;;1.83;;
31368;SDS011;18004;48.416;10.066;2023-04-15T01:07:28;4.25;;;1.95;;
31368;SDS011;18004;48.416;10.066;2023-04-15T01:09:54;6.78;;;2.03;;
31368;SDS011;18004;48.416;10.066;2023-04-15T01:12:20;3.90;;;1.67;;
31368;SDS011;18004;48.416;10.066;2023-04-15T01:14:45;3.83;;;1.70;;
31368;SDS011;18004;48.416;10.066;2023-04-15T01:17:11;4.03;;;1.42;;
31368;SDS011;18004;48.416;10.066;2023-04-15T01:19:37;4.28;;;1.75;;
31368;SDS011;18004;48.416;10.066;2023-04-15T01:22:03;2.22;;;1.67;;
31368;SDS011;18004;48.416;10.066;2023-04-15T01:24:30;5.65;;;1.20;;
31368;SDS011;18004;48.416;10.066;2023-04-15T01:26:57;3.50;;;1.75;;
31368;SDS011;18004;48.416;10.066;2023-04-15T01:29:23;3.83;;;2.13;;
31368;SDS011;18004;48.416;10.066;2023-04-15T01:31:49;8.15;;;2.78;;
31368;SDS011;18004;48.416;10.066;2023-04-15T01:34:16;5.38;;;2.90;;
31368;SDS011;18004;48.416;10.066;2023-04-15T01:36:42;6.57;;;3.05;;
31368;SDS011;18004;48.416;10.066;2023-04-15T01:39:08;6.75;;;3.35;;
31368;SDS011;18004;48.416;10.066;2023-04-15T01:41:34;6.80;;;3.80;;
31368;SDS011;18004;48.416;10.066;2023-04-15T01:43:59;6.32;;;3.00;;
31368;SDS011;18004;48.416;10.066;2023-04-15T01:46:26;5.82;;;2.17;;
31368;SDS011;18004;48.416;10.066;2023-04-15T01:48:51;4.25;;;1.98;;
31368;SDS011;18004;48.416;10.066;2023-04-15T01:51:17;3.85;;;2.03;;
31368;SDS011;18004;48.416;10.066;2023-04-15T01:53:43;15.27;;;2.45;;
31368;SDS011;18004;48.416;10.066;2023-04-15T01:56:10;5.55;;;2.05;;
31368;SDS011;18004;48.416;10.066;2023-04-15T01:58:36;5.43;;;2.15;;
31368;SDS011;18004;48.416;10.066;2023-04-15T02:01:02;2.55;;;1.67;;
31368;SDS011;18004;48.416;10.066;2023-04-15T02:03:28;6.03;;;2.40;;
31368;SDS011;18004;48.416;10.066;2023-04-15T02:05:54;1.50;;;1.20;;
31368;SDS011;18004;48.416;10.066;2023-04-15T02:08:20;2.47;;;1.40;;
31368;SDS011;18004;48.416;10.066;2023-04-15T02:10:47;9.82;;;2.22;;
31368;SDS011;18004;48.416;10.066;2023-04-15T02:13:12;2.30;;;1.45;;
31368;SDS011;18004;48.416;10.066;2023-04-15T02:15:38;3.47;;;1.52;;
31368;SDS011;18004;48.416;10.066;2023-04-15T02:18:05;3.17;;;1.67;;
31368;SDS011;18004;48.416;10.066;2023-04-15T02:20:31;6.32;;;1.67;;
31368;SDS011;18004;48.416;10.066;2023-04-15T02:22:57;4.43;;;1.73;;
31368;SDS011;18004;48.416;10.066;2023-04-15T02:25:23;6.25;;;1.70;;
31368;SDS011;18004;48.416;10.066;2023-04-15T02:27:49;3.38;;;1.67;;
31368;SDS011;18004;48.416;10.066;2023-04-15T02:30:14;2.78;;;1.52;;
31368;SDS011;18004;48.416;10.066;2023-04-15T02:32:41;2.90;;;1.83;;
31368;SDS011;18004;48.416;10.066;2023-04-15T02:35:10;4.75;;;2.13;;
31368;SDS011;18004;48.416;10.066;2023-04-15T02:37:36;4.47;;;1.30;;
31368;SDS011;18004;48.416;10.066;2023-04-15T02:40:10;5.50;;;1.98;;
31368;SDS011;18004;48.416;10.066;2023-04-15T02:42:40;7.53;;;2.13;;
31368;SDS011;18004;48.416;10.066;2023-04-15T02:45:07;2.85;;;1.50;;
31368;SDS011;18004;48.416;10.066;2023-04-15T02:47:34;3.28;;;1.35;;
31368;SDS011;18004;48.416;10.066;2023-04-15T02:50:01;2.63;;;1.63;;
31368;SDS011;18004;48.416;10.066;2023-04-15T02:52:28;2.33;;;1.33;;
31368;SDS011;18004;48.416;10.066;2023-04-15T02:54:53;2.55;;;2.05;;
31368;SDS011;18004;48.416;10.066;2023-04-15T02:57:24;2.00;;;1.27;;
31368;SDS011;18004;48.416;10.066;2023-04-15T02:59:52;4.63;;;1.52;;
31368;SDS011;18004;48.416;10.066;2023-04-15T03:02:18;3.63;;;1.73;;
31368;SDS011;18004;48.416;10.066;2023-04-15T03:04:44;3.17;;;2.00;;
31368;SDS011;18004;48.416;10.066;2023-04-15T03:07:10;4.80;;;1.50;;
31368;SDS011;18004;48.416;10.066;2023-04-15T03:09:36;3.35;;;1.45;;
31368;SDS011;18004;48.416;10.066;2023-04-15T03:12:04;2.50;;;1.80;;
31368;SDS011;18004;48.416;10.066;2023-04-15T03:14:30;7.90;;;2.17;;
31368;SDS011;18004;48.416;10.066;2023-04-15T03:16:56;2.45;;;2.15;;
31368;SDS011;18004;48.416;10.066;2023-04-15T03:19:23;4.30;;;2.55;;
31368;SDS011;18004;48.416;10.066;2023-04-15T03:21:49;6.03;;;2.88;;
31368;SDS011;18004;48.416;10.066;2023-04-15T03:24:16;7.28;;;3.45;;
31368;SDS011;18004;48.416;10.066;2023-04-15T03:26:42;3.63;;;3.03;;
31368;SDS011;18004;48.416;10.066;2023-04-15T03:29:08;3.00;;;1.88;;
31368;SDS011;18004;48.416;10.066;2023-04-15T03:31:33;3.83;;;2.13;;
31368;SDS011;18004;48.416;10.066;2023-04-15T03:33:59;3.53;;;1.95;;
31368;SDS011;18004;48.416;10.066;2023-04-15T03:36:25;5.93;;;2.13;;
31368;SDS011;18004;48.416;10.066;2023-04-15T03:38:53;3.97;;;2.40;;
31368;SDS011;18004;48.416;10.066;2023-04-15T03:41:19;4.93;;;2.35;;
31368;SDS011;18004;48.416;10.066;2023-04-15T03:43:44;2.65;;;1.92;;
31368;SDS011;18004;48.416;10.066;2023-04-15T03:46:10;3.50;;;2.00;;
31368;SDS011;18004;48.416;10.066;2023-04-15T03:48:36;2.95;;;1.63;;
31368;SDS011;18004;48.416;10.066;2023-04-15T03:51:02;8.38;;;2.13;;
31368;SDS011;18004;48.416;10.066;2023-04-15T03:53:27;3.35;;;1.70;;
31368;SDS011;18004;48.416;10.066;2023-04-15T03:55:53;1.70;;;1.40;;
31368;SDS011;18004;48.416;10.066;2023-04-15T03:58:19;3.20;;;1.80;;
31368;SDS011;18004;48.416;10.066;2023-04-15T04:00:45;2.20;;;1.55;;
31368;SDS011;18004;48.416;10.066;2023-04-15T04:03:11;3.53;;;1.92;;
31368;SDS011;18004;48.416;10.066;2023-04-15T04:05:36;4.20;;;2.35;;
31368;SDS011;18004;48.416;10.066;2023-04-15T04:08:03;2.40;;;1.48;;
31368;SDS011;18004;48.416;10.066;2023-04-15T04:10:29;3.83;;;1.80;;
31368;SDS011;18004;48.416;10.066;2023-04-15T04:12:55;4.40;;;1.77;;
31368;SDS011;18004;48.416;10.066;2023-04-15T04:15:21;5.85;;;1.98;;
31368;SDS011;18004;48.416;10.066;2023-04-15T04:17:46;4.93;;;2.15;;
31368;SDS011;18004;48.416;10.066;2023-04-15T04:20:12;2.25;;;1.48;;
31368;SDS011;18004;48.416;10.066;2023-04-15T04:22:38;5.95;;;1.88;;
31368;SDS011;18004;48.416;10.066;2023-04-15T04:25:05;2.83;;;1.60;;
31368;SDS011;18004;48.416;10.066;2023-04-15T04:27:32;2.60;;;1.40;;
31368;SDS011;18004;48.416;10.066;2023-04-15T04:29:59;2.90;;;2.17;;
31368;SDS011;18004;48.416;10.066;2023-04-15T04:32:24;2.88;;;1.50;;
31368;SDS011;18004;48.416;10.066;2023-04-15T04:34:50;3.53;;;1.80;;
31368;SDS011;18004;48.416;10.066;2023-04-15T04:37:16;4.75;;;1.58;;
31368;SDS011;18004;48.416;10.066;2023-04-15T04:39:42;5.50;;;1.45;;
31368;SDS011;18004;48.416;10.066;2023-04-15T04:42:08;2.42;;;1.48;;
31368;SDS011;18004;48.416;10.066;2023-04-15T04:44:34;8.40;;;1.73;;
31368;SDS011;18004;48.416;10.066;2023-04-15T04:46:59;4.55;;;1.70;;
31368;SDS011;18004;48.416;10.066;2023-04-15T04:49:25;4.15;;;1.52;;
31368;SDS011;18004;48.416;10.066;2023-04-15T04:51:51;2.75;;;1.58;;
31368;SDS011;18004;48.416;10.066;2023-04-15T04:54:17;6.88;;;1.83;;
31368;SDS011;18004;48.416;10.066;2023-04-15T04:56:42;2.55;;;1.65;;
31368;SDS011;18004;48.416;10.066;2023-04-15T04:59:08;2.15;;;1.67;;
31368;SDS011;18004;48.416;10.066;2023-04-15T05:01:34;2.58;;;1.67;;
31368;SDS011;18004;48.416;10.066;2023-04-15T05:04:00;6.32;;;1.77;;
31368;SDS011;18004;48.416;10.066;2023-04-15T05:06:25;3.97;;;1.90;;
31368;SDS011;18004;48.416;10.066;2023-04-15T05:08:54;3.58;;;2.30;;
31368;SDS011;18004;48.416;10.066;2023-04-15T05:11:20;4.85;;;2.58;;
31368;SDS011;18004;48.416;10.066;2023-04-15T05:13:46;6.25;;;1.67;;
31368;SDS011;18004;48.416;10.066;2023-04-15T05:16:12;7.35;;;2.47;;
31368;SDS011;18004;48.416;10.066;2023-04-15T05:18:37;5.55;;;2.10;;
31368;SDS011;18004;48.416;10.066;2023-04-15T05:21:03;3.53;;;2.45;;
31368;SDS011;18004;48.416;10.066;2023-04-15T05:23:29;6.47;;;3.08;;
31368;SDS011;18004;48.416;10.066;2023-04-15T05:25:55;5.50;;;3.13;;
31368;SDS011;18004;48.416;10.066;2023-04-15T05:28:21;5.15;;;3.42;;
31368;SDS011;18004;48.416;10.066;2023-04-15T05:30:46;5.30;;;3.63;;
31368;SDS011;18004;48.416;10.066;2023-04-15T05:33:12;8.70;;;4.00;;
31368;SDS011;18004;48.416;10.066;2023-04-15T05:35:38;7.63;;;3.58;;
31368;SDS011;18004;48.416;10.066;2023-04-15T05:38:04;7.43;;;4.55;;
31368;SDS011;18004;48.416;10.066;2023-04-15T05:40:30;9.25;;;4.93;;
31368;SDS011;18004;48.416;10.066;2023-04-15T05:42:56;6.22;;;3.72;;
31368;SDS011;18004;48.416;10.066;2023-04-15T05:45:22;10.68;;;3.92;;
31368;SDS011;18004;48.416;10.066;2023-04-15T05:47:47;14.27;;;3.63;;
31368;SDS011;18004;48.416;10.066;2023-04-15T05:50:18;3.75;;;2.67;;
31368;SDS011;18004;48.416;10.066;2023-04-15T05:52:45;6.15;;;2.35;;
31368;SDS011;18004;48.416;10.066;2023-04-15T05:55:11;5.60;;;2.78;;
31368;SDS011;18004;48.416;10.066;2023-04-15T05:57:37;9.30;;;3.00;;
31368;SDS011;18004;48.416;10.066;2023-04-15T06:00:03;5.10;;;2.40;;
31368;SDS011;18004;48.416;10.066;2023-04-15T06:02:30;2.47;;;1.80;;
31368;SDS011;18004;48.416;10.066;2023-04-15T06:04:56;3.13;;;2.40;;
31368;SDS011;18004;48.416;10.066;2023-04-15T06:07:22;5.20;;;2.33;;
31368;SDS011;18004;48.416;10.066;2023-04-15T06:09:48;10.00;;;2.47;;
31368;SDS011;18004;48.416;10.066;2023-04-15T06:12:15;5.07;;;2.08;;
31368;SDS011;18004;48.416;10.066;2023-04-15T06:14:41;5.50;;;2.40;;
31368;SDS011;18004;48.416;10.066;2023-04-15T06:17:07;2.25;;;2.00;;
31368;SDS011;18004;48.416;10.066;2023-04-15T06:19:33;2.88;;;2.03;;
31368;SDS011;18004;48.416;10.066;2023-04-15T06:22:01;3.53;;;2.08;;
31368;SDS011;18004;48.416;10.066;2023-04-15T06:24:27;5.43;;;1.80;;
31368;SDS011;18004;48.416;10.066;2023-04-15T06:26:53;5.07;;;2.17;;
31368;SDS011;18004;48.416;10.066;2023-04-15T06:29:18;4.47;;;2.47;;
31368;SDS011;18004;48.416;10.066;2023-04-15T06:31:46;2.97;;;2.35;;
31368;SDS011;18004;48.416;10.066;2023-04-15T06:34:12;12.80;;;2.97;;
31368;SDS011;18004;48.416;10.066;2023-04-15T06:36:38;4.95;;;3.58;;
31368;SDS011;18004;48.416;10.066;2023-04-15T06:39:04;6.68;;;2.45;;
31368;SDS011;18004;48.416;10.066;2023-04-15T06:41:29;5.13;;;2.42;;
31368;SDS011;18004;48.416;10.066;2023-04-15T06:43:55;11.93;;;2.75;;
31368;SDS011;18004;48.416;10.066;2023-04-15T06:46:21;3.65;;;2.95;;
31368;SDS011;18004;48.416;10.066;2023-04-15T06:48:47;10.70;;;2.83;;
31368;SDS011;18004;48.416;10.066;2023-04-15T06:51:13;9.02;;;2.38;;
31368;SDS011;18004;48.416;10.066;2023-04-15T06:53:38;3.63;;;2.00;;
31368;SDS011;18004;48.416;10.066;2023-04-15T06:56:07;3.38;;;2.35;;
31368;SDS011;18004;48.416;10.066;2023-04-15T06:58:33;3.75;;;2.33;;
31368;SDS011;18004;48.416;10.066;2023-04-15T07:00:59;3.10;;;2.58;;
31368;SDS011;18004;48.416;10.066;2023-04-15T07:03:25;9.75;;;2.38;;
31368;SDS011;18004;48.416;10.066;2023-04-15T07:05:51;6.50;;;2.47;;
31368;SDS011;18004;48.416;10.066;2023-04-15T07:08:18;3.38;;;1.90;;
31368;SDS011;18004;48.416;10.066;2023-04-15T07:10:45;4.95;;;1.95;;
31368;SDS011;18004;48.416;10.066;2023-04-15T07:13:11;1.98;;;1.52;;
31368;SDS011;18004;48.416;10.066;2023-04-15T07:15:37;6.63;;;1.85;;
31368;SDS011;18004;48.416;10.066;2023-04-15T07:18:03;8.25;;;2.00;;
31368;SDS011;18004;48.416;10.066;2023-04-15T07:20:29;7.57;;;1.90;;
31368;SDS011;18004;48.416;10.066;2023-04-15T07:22:55;3.65;;;1.98;;
31368;SDS011;18004;48.416;10.066;2023-04-15T07:25:20;5.30;;;1.75;;
31368;SDS011;18004;48.416;10.066;2023-04-15T07:27:46;2.50;;;1.60;;
31368;SDS011;18004;48.416;10.066;2023-04-15T07:30:12;6.20;;;2.08;;
31368;SDS011;18004;48.416;10.066;2023-04-15T07:32:39;6.45;;;2.25;;
31368;SDS011;18004;48.416;10.066;2023-04-15T07:35:05;3.50;;;1.90;;
31368;SDS011;18004;48.416;10.066;2023-04-15T07:37:32;4.03;;;2.17;;
31368;SDS011;18004;48.416;10.066;2023-04-15T07:39:57;6.35;;;2.28;;
31368;SDS011;18004;48.416;10.066;2023-04-15T07:42:23;3.92;;;2.38;;
31368;SDS011;18004;48.416;10.066;2023-04-15T07:44:50;8.18;;;2.55;;
31368;SDS011;18004;48.416;10.066;2023-04-15T07:47:16;5.90;;;3.17;;
31368;SDS011;18004;48.416;10.066;2023-04-15T07:49:42;6.25;;;3.38;;
31368;SDS011;18004;48.416;10.066;2023-04-15T07:52:08;7.13;;;4.32;;
31368;SDS011;18004;48.416;10.066;2023-04-15T07:54:34;11.95;;;4.07;;
31368;SDS011;18004;48.416;10.066;2023-04-15T07:57:00;5.32;;;2.97;;
31368;SDS011;18004;48.416;10.066;2023-04-15T07:59:25;9.57;;;4.07;;
31368;SDS011;18004;48.416;10.066;2023-04-15T08:01:54;7.00;;;3.05;;
31368;SDS011;18004;48.416;10.066;2023-04-15T08:04:19;4.93;;;2.22;;
31368;SDS011;18004;48.416;10.066;2023-04-15T08:06:45;5.63;;;2.20;;
31368;SDS011;18004;48.416;10.066;2023-04-15T08:09:13;5.55;;;2.45;;
31368;SDS011;18004;48.416;10.066;2023-04-15T08:11:39;11.38;;;4.00;;
31368;SDS011;18004;48.416;10.066;2023-04-15T08:14:05;7.00;;;2.53;;
31368;SDS011;18004;48.416;10.066;2023-04-15T08:16:31;4.82;;;1.92;;
31368;SDS011;18004;48.416;10.066;2023-04-15T08:18:57;3.88;;;1.70;;
31368;SDS011;18004;48.416;10.066;2023-04-15T08:21:23;4.82;;;1.65;;
31368;SDS011;18004;48.416;10.066;2023-04-15T08:23:50;5.20;;;1.40;;
31368;SDS011;18004;48.416;10.066;2023-04-15T08:26:17;5.57;;;2.42;;
31368;SDS011;18004;48.416;10.066;2023-04-15T08:28:43;4.38;;;1.85;;
31368;SDS011;18004;48.416;10.066;2023-04-15T08:31:10;5.00;;;2.38;;
31368;SDS011;18004;48.416;10.066;2023-04-15T08:33:38;7.03;;;2.25;;
31368;SDS011;18004;48.416;10.066;2023-04-15T08:36:03;13.98;;;2.97;;
31368;SDS011;18004;48.416;10.066;2023-04-15T08:38:30;4.65;;;1.92;;
31368;SDS011;18004;48.416;10.066;2023-04-15T08:40:56;5.47;;;3.33;;
31368;SDS011;18004;48.416;10.066;2023-04-15T08:43:26;11.98;;;3.33;;
31368;SDS011;18004;48.416;10.066;2023-04-15T08:45:54;5.32;;;2.75;;
31368;SDS011;18004;48.416;10.066;2023-04-15T08:48:23;4.95;;;2.33;;
31368;SDS011;18004;48.416;10.066;2023-04-15T08:50:52;2.88;;;2.17;;
31368;SDS011;18004;48.416;10.066;2023-04-15T08:53:19;5.65;;;2.72;;
31368;SDS011;18004;48.416;10.066;2023-04-15T08:55:46;7.75;;;1.80;;
31368;SDS011;18004;48.416;10.066;2023-04-15T08:58:16;6.05;;;1.88;;
31368;SDS011;18004;48.416;10.066;2023-04-15T09:00:44;10.15;;;2.03;;
31368;SDS011;18004;48.416;10.066;2023-04-15T09:03:10;4.53;;;1.55;;
31368;SDS011;18004;48.416;10.066;2023-04-15T09:05:36;3.72;;;1.50;;
31368;SDS011;18004;48.416;10.066;2023-04-15T09:08:02;2.35;;;1.65;;
31368;SDS011;18004;48.416;10.066;2023-04-15T09:10:28;3.17;;;1.70;;
31368;SDS011;18004;48.416;10.066;2023-04-15T09:12:55;3.35;;;1.75;;
31368;SDS011;18004;48.416;10.066;2023-04-15T09:15:23;6.95;;;1.85;;
31368;SDS011;18004;48.416;10.066;2023-04-15T09:17:51;2.58;;;1.52;;
31368;SDS011;18004;48.416;10.066;2023-04-15T09:20:17;10.68;;;1.70;;
31368;SDS011;18004;48.416;10.066;2023-04-15T09:22:44;3.60;;;1.85;;
31368;SDS011;18004;48.416;10.066;2023-04-15T09:30:19;3.03;;;1.98;;
31368;SDS011;18004;48.416;10.066;2023-04-15T09:32:52;3.58;;;1.67;;
31368;SDS011;18004;48.416;10.066;2023-04-15T09:35:19;7.05;;;2.22;;
31368;SDS011;18004;48.416;10.066;2023-04-15T09:37:46;1.55;;;1.30;;
31368;SDS011;18004;48.416;10.066;2023-04-15T09:40:13;1.67;;;0.70;;
31368;SDS011;18004;48.416;10.066;2023-04-15T09:42:54;0.47;;;0.47;;
31368;SDS011;18004;48.416;10.066;2023-04-15T09:45:21;4.97;;;0.95;;
31368;SDS011;18004;48.416;10.066;2023-04-15T09:47:48;2.10;;;1.23;;
31368;SDS011;18004;48.416;10.066;2023-04-15T09:50:15;3.08;;;1.60;;
31368;SDS011;18004;48.416;10.066;2023-04-15T09:52:42;2.38;;;1.15;;
31368;SDS011;18004;48.416;10.066;2023-04-15T09:55:08;1.27;;;0.77;;
31368;SDS011;18004;48.416;10.066;2023-04-15T09:57:35;2.65;;;0.85;;
31368;SDS011;18004;48.416;10.066;2023-04-15T10:00:03;3.90;;;1.17;;
31368;SDS011;18004;48.416;10.066;2023-04-15T10:02:30;0.68;;;0.60;;
31368;SDS011;18004;48.416;10.066;2023-04-15T10:04:56;2.78;;;0.73;;
31368;SDS011;18004;48.416;10.066;2023-04-15T10:07:23;6.10;;;1.20;;
31368;SDS011;18004;48.416;10.066;2023-04-15T10:09:50;2.50;;;1.10;;
31368;SDS011;18004;48.416;10.066;2023-04-15T10:12:17;1.40;;;0.75;;
31368;SDS011;18004;48.416;10.066;2023-04-15T10:14:43;0.50;;;0.50;;
31368;SDS011;18004;48.416;10.066;2023-04-15T10:17:12;4.40;;;1.02;;
31368;SDS011;18004;48.416;10.066;2023-04-15T10:19:45;1.40;;;1.08;;
31368;SDS011;18004;48.416;10.066;2023-04-15T10:22:13;4.38;;;1.10;;
31368;SDS011;18004;48.416;10.066;2023-04-15T10:24:39;2.45;;;1.08;;
31368;SDS011;18004;48.416;10.066;2023-04-15T10:27:06;1.17;;;0.73;;
31368;SDS011;18004;48.416;10.066;2023-04-15T10:29:33;0.90;;;0.60;;
31368;SDS011;18004;48.416;10.066;2023-04-15T10:31:59;2.25;;;0.80;;
31368;SDS011;18004;48.416;10.066;2023-04-15T10:34:26;1.00;;;0.80;;
31368;SDS011;18004;48.416;10.066;2023-04-15T10:36:54;1.02;;;0.55;;
31368;SDS011;18004;48.416;10.066;2023-04-15T10:42:06;1.30;;;0.80;;
31368;SDS011;18004;48.416;10.066;2023-04-15T10:44:50;4.47;;;0.88;;
31368;SDS011;18004;48.416;10.066;2023-04-15T10:47:20;5.10;;;0.82;;
31368;SDS011;18004;48.416;10.066;2023-04-15T10:49:50;1.08;;;0.82;;
31368;SDS011;18004;48.416;10.066;2023-04-15T10:52:22;1.02;;;0.80;;
31368;SDS011;18004;48.416;10.066;2023-04-15T10:54:49;1.90;;;1.02;;
31368;SDS011;18004;48.416;10.066;2023-04-15T10:57:46;1.65;;;0.90;;
31368;SDS011;18004;48.416;10.066;2023-04-15T11:00:17;3.20;;;1.10;;
31368;SDS011;18004;48.416;10.066;2023-04-15T11:05:18;3.10;;;1.20;;
31368;SDS011;18004;48.416;10.066;2023-04-15T11:12:38;3.65;;;1.25;;
31368;SDS011;18004;48.416;10.066;2023-04-15T11:15:24;0.80;;;0.80;;
31368;SDS011;18004;48.416;10.066;2023-04-15T11:17:51;2.58;;;1.38;;
31368;SDS011;18004;48.416;10.066;2023-04-15T11:20:17;2.67;;;1.02;;
31368;SDS011;18004;48.416;10.066;2023-04-15T11:22:50;2.10;;;1.23;;
31368;SDS011;18004;48.416;10.066;2023-04-15T11:27:49;0.95;;;0.70;;
31368;SDS011;18004;48.416;10.066;2023-04-15T11:30:22;1.05;;;0.93;;
31368;SDS011;18004;48.416;10.066;2023-04-15T11:32:49;1.10;;;0.85;;
31368;SDS011;18004;48.416;10.066;2023-04-15T11:35:17;1.23;;;0.90;;
31368;SDS011;18004;48.416;10.066;2023-04-15T11:37:44;2.10;;;0.77;;
31368;SDS011;18004;48.416;10.066;2023-04-15T11:40:10;4.43;;;1.05;;
31368;SDS011;18004;48.416;10.066;2023-04-15T11:42:36;3.20;;;1.17;;
31368;SDS011;18004;48.416;10.066;2023-04-15T11:45:06;1.45;;;1.25;;
31368;SDS011;18004;48.416;10.066;2023-04-15T11:47:36;1.15;;;0.82;;
31368;SDS011;18004;48.416;10.066;2023-04-15T11:50:12;2.50;;;1.25;;
31368;SDS011;18004;48.416;10.066;2023-04-15T11:52:55;2.45;;;0.85;;
31368;SDS011;18004;48.416;10.066;2023-04-15T11:55:25;2.60;;;0.93;;
31368;SDS011;18004;48.416;10.066;2023-04-15T11:58:11;2.50;;;1.10;;
31368;SDS011;18004;48.416;10.066;2023-04-15T12:00:45;1.88;;;0.90;;
31368;SDS011;18004;48.416;10.066;2023-04-15T12:03:20;2.50;;;0.98;;
31368;SDS011;18004;48.416;10.066;2023-04-15T12:06:01;1.65;;;1.00;;
31368;SDS011;18004;48.416;10.066;2023-04-15T12:13:53;1.90;;;0.93;;
31368;SDS011;18004;48.416;10.066;2023-04-15T12:16:21;1.23;;;0.85;;
31368;SDS011;18004;48.416;10.066;2023-04-15T12:18:52;3.33;;;1.25;;
31368;SDS011;18004;48.416;10.066;2023-04-15T12:21:22;2.83;;;1.45;;
31368;SDS011;18004;48.416;10.066;2023-04-15T12:23:55;1.77;;;1.25;;
31368;SDS011;18004;48.416;10.066;2023-04-15T12:26:26;1.08;;;0.55;;
31368;SDS011;18004;48.416;10.066;2023-04-15T12:29:00;2.63;;;0.93;;
31368;SDS011;18004;48.416;10.066;2023-04-15T12:31:50;1.77;;;1.35;;
31368;SDS011;18004;48.416;10.066;2023-04-15T12:34:24;2.20;;;1.13;;
31368;SDS011;18004;48.416;10.066;2023-04-15T12:36:55;1.63;;;1.20;;
31368;SDS011;18004;48.416;10.066;2023-04-15T12:39:22;2.08;;;1.08;;
31368;SDS011;18004;48.416;10.066;2023-04-15T12:41:49;3.78;;;1.20;;
31368;SDS011;18004;48.416;10.066;2023-04-15T12:44:16;10.75;;;1.05;;
31368;SDS011;18004;48.416;10.066;2023-04-15T12:46:42;0.82;;;0.47;;
31368;SDS011;18004;48.416;10.066;2023-04-15T12:49:08;2.00;;;1.20;;
31368;SDS011;18004;48.416;10.066;2023-04-15T12:51:34;3.08;;;1.50;;
31368;SDS011;18004;48.416;10.066;2023-04-15T12:54:00;3.03;;;1.50;;
31368;SDS011;18004;48.416;10.066;2023-04-15T12:56:26;2.70;;;1.40;;
31368;SDS011;18004;48.416;10.066;2023-04-15T12:58:51;2.53;;;1.13;;
31368;SDS011;18004;48.416;10.066;2023-04-15T13:01:17;1.58;;;0.90;;
31368;SDS011;18004;48.416;10.066;2023-04-15T13:03:43;2.72;;;1.05;;
31368;SDS011;18004;48.416;10.066;2023-04-15T13:06:09;5.38;;;1.15;;
31368;SDS011;18004;48.416;10.066;2023-04-15T13:08:35;3.03;;;1.30;;
31368;SDS011;18004;48.416;10.066;2023-04-15T13:11:02;12.93;;;1.35;;
31368;SDS011;18004;48.416;10.066;2023-04-15T13:13:28;4.03;;;1.63;;
31368;SDS011;18004;48.416;10.066;2023-04-15T13:15:56;1.58;;;0.88;;
31368;SDS011;18004;48.416;10.066;2023-04-15T13:18:22;1.63;;;1.23;;
31368;SDS011;18004;48.416;10.066;2023-04-15T13:20:48;2.22;;;1.20;;
31368;SDS011;18004;48.416;10.066;2023-04-15T13:23:14;4.65;;;1.38;;
31368;SDS011;18004;48.416;10.066;2023-04-15T13:25:40;3.03;;;1.55;;
31368;SDS011;18004;48.416;10.066;2023-04-15T13:28:06;1.75;;;1.50;;
31368;SDS011;18004;48.416;10.066;2023-04-15T13:30:32;3.08;;;1.42;;
31368;SDS011;18004;48.416;10.066;2023-04-15T13:32:58;5.60;;;1.48;;
31368;SDS011;18004;48.416;10.066;2023-04-15T13:35:23;2.78;;;1.38;;
31368;SDS011;18004;48.416;10.066;2023-04-15T13:37:49;2.20;;;1.15;;
31368;SDS011;18004;48.416;10.066;2023-04-15T13:40:15;2.72;;;1.42;;
31368;SDS011;18004;48.416;10.066;2023-04-15T13:42:41;2.53;;;0.88;;
31368;SDS011;18004;48.416;10.066;2023-04-15T13:45:07;2.15;;;1.05;;
31368;SDS011;18004;48.416;10.066;2023-04-15T13:47:34;1.10;;;0.95;;
31368;SDS011;18004;48.416;10.066;2023-04-15T13:50:00;2.83;;;1.13;;
31368;SDS011;18004;48.416;10.066;2023-04-15T13:52:25;3.95;;;1.20;;
31368;SDS011;18004;48.416;10.066;2023-04-15T13:54:51;3.97;;;1.52;;
31368;SDS011;18004;48.416;10.066;2023-04-15T13:57:17;3.50;;;1.45;;
31368;SDS011;18004;48.416;10.066;2023-04-15T13:59:43;7.70;;;1.30;;
31368;SDS011;18004;48.416;10.066;2023-04-15T14:02:09;1.10;;;1.00;;
31368;SDS011;18004;48.416;10.066;2023-04-15T14:04:35;1.08;;;1.00;;
31368;SDS011;18004;48.416;10.066;2023-04-15T14:07:00;3.05;;;1.13;;
31368;SDS011;18004;48.416;10.066;2023-04-15T14:09:26;1.10;;;0.50;;
31368;SDS011;18004;48.416;10.066;2023-04-15T14:11:52;0.98;;;0.77;;
31368;SDS011;18004;48.416;10.066;2023-04-15T14:14:18;5.15;;;1.45;;
31368;SDS011;18004;48.416;10.066;2023-04-15T14:16:44;0.95;;;0.80;;
31368;SDS011;18004;48.416;10.066;2023-04-15T14:19:09;0.93;;;0.88;;
31368;SDS011;18004;48.416;10.066;2023-04-15T14:21:35;0.73;;;0.70;;
31368;SDS011;18004;48.416;10.066;2023-04-15T14:24:01;2.40;;;1.50;;
31368;SDS011;18004;48.416;10.066;2023-04-15T14:26:27;1.85;;;0.80;;
31368;SDS011;18004;48.416;10.066;2023-04-15T14:28:53;1.58;;;1.25;;
31368;SDS011;18004;48.416;10.066;2023-04-15T14:31:18;2.75;;;1.85;;
31368;SDS011;18004;48.416;10.066;2023-04-15T14:33:44;1.05;;;0.85;;
31368;SDS011;18004;48.416;10.066;2023-04-15T14:36:10;2.63;;;1.40;;
31368;SDS011;18004;48.416;10.066;2023-04-15T14:38:36;1.17;;;1.08;;
31368;SDS011;18004;48.416;10.066;2023-04-15T14:41:05;2.55;;;1.00;;
31368;SDS011;18004;48.416;10.066;2023-04-15T14:43:32;1.05;;;0.88;;
31368;SDS011;18004;48.416;10.066;2023-04-15T14:46:01;3.55;;;1.35;;
31368;SDS011;18004;48.416;10.066;2023-04-15T14:48:27;1.70;;;0.90;;
31368;SDS011;18004;48.416;10.066;2023-04-15T14:50:53;4.28;;;0.50;;
31368;SDS011;18004;48.416;10.066;2023-04-15T14:53:19;1.45;;;0.70;;
31368;SDS011;18004;48.416;10.066;2023-04-15T14:55:44;2.45;;;1.30;;